createdAt,value
2023-04-08T00:00:09.522Z,38.35
2023-04-08T00:02:43.195Z,32.38
2023-04-08T00:05:13.188Z,42.80
2023-04-08T00:07:41.478Z,37.87
2023-04-08T00:10:11.453Z,36.42
2023-04-08T00:12:39.801Z,33.90
2023-04-08T00:15:08.887Z,42.88
2023-04-08T00:17:37.381Z,41.95
2023-04-08T00:20:06.898Z,43.72
2023-04-08T00:22:37.505Z,39.95
2023-04-08T00:25:09.388Z,36.50
2023-04-08T00:27:37.817Z,37.55
2023-04-08T00:30:07.931Z,39.90
2023-04-08T00:32:36.481Z,38.97
2023-04-08T00:35:05.589Z,39.25
2023-04-08T00:37:34.597Z,38.42
2023-04-08T00:40:04.416Z,43.00
2023-04-08T00:42:32.814Z,39.67
2023-04-08T00:45:01.170Z,38.00
2023-04-08T00:47:29.618Z,40.05
2023-04-08T00:49:58.128Z,40.45
2023-04-08T00:52:26.472Z,46.47
2023-04-08T00:54:54.816Z,43.92
2023-04-08T00:57:24.579Z,43.25
2023-04-08T00:59:53.053Z,41.05
2023-04-08T01:02:33.043Z,41.75
2023-04-08T01:05:06.545Z,41.53
2023-04-08T01:07:38.846Z,38.80
2023-04-08T01:10:16.438Z,37.85
2023-04-08T01:12:59.558Z,39.03
2023-04-08T01:15:30.280Z,42.00
2023-04-08T01:18:01.726Z,41.00
2023-04-08T01:20:31.924Z,42.08
2023-04-08T01:23:12.282Z,37.63
2023-04-08T01:25:41.266Z,40.85
2023-04-08T01:28:16.351Z,39.67
2023-04-08T01:30:46.312Z,37.92
2023-04-08T01:33:18.798Z,39.17
2023-04-08T01:35:47.991Z,39.47
2023-04-08T01:38:19.600Z,39.45
2023-04-08T01:40:50.880Z,41.53
2023-04-08T01:43:21.280Z,44.00
2023-04-08T01:45:54.507Z,39.83
2023-04-08T01:48:24.130Z,42.58
2023-04-08T01:50:54.439Z,43.60
2023-04-08T01:53:23.392Z,42.63
2023-04-08T01:55:58.771Z,41.85
2023-04-08T01:58:34.249Z,42.40
2023-04-08T02:01:03.448Z,38.33
2023-04-08T02:03:32.841Z,41.38
2023-04-08T02:06:01.487Z,43.13
2023-04-08T02:08:29.734Z,46.80
2023-04-08T02:10:58.097Z,46.75
2023-04-08T02:13:27.928Z,46.63
2023-04-08T02:16:06.015Z,45.83
2023-04-08T02:18:38.846Z,48.03
2023-04-08T02:21:12.957Z,51.80
2023-04-08T02:23:42.739Z,49.45
2023-04-08T02:26:16.053Z,49.27
2023-04-08T02:28:46.184Z,48.22
2023-04-08T02:31:16.047Z,47.92
2023-04-08T02:33:47.877Z,45.78
2023-04-08T02:36:17.129Z,52.30
2023-04-08T02:38:49.911Z,51.70
2023-04-08T02:41:18.765Z,52.15
2023-04-08T02:43:48.400Z,49.65
2023-04-08T02:46:16.773Z,51.25
2023-04-08T02:48:45.243Z,49.75
2023-04-08T02:51:13.910Z,50.83
2023-04-08T02:53:42.254Z,49.20
2023-04-08T02:56:12.366Z,52.05
2023-04-08T02:58:40.772Z,50.13
2023-04-08T03:01:10.820Z,50.75
2023-04-08T03:03:39.394Z,51.13
2023-04-08T03:06:07.848Z,49.83
2023-04-08T03:08:36.143Z,52.10
2023-04-08T03:11:04.397Z,50.05
2023-04-08T03:13:32.799Z,49.58
2023-04-08T03:16:01.208Z,49.78
2023-04-08T03:18:31.247Z,56.55
2023-04-08T03:20:59.604Z,49.75
2023-04-08T03:23:27.978Z,48.03
2023-04-08T03:25:56.352Z,50.30
2023-04-08T03:28:24.630Z,39.70
2023-04-08T03:30:53.069Z,44.15
2023-04-08T03:33:21.357Z,46.85
2023-04-08T03:35:51.112Z,41.13
2023-04-08T03:38:19.359Z,46.70
2023-04-08T03:40:47.799Z,48.53
2023-04-08T03:43:16.563Z,51.97
2023-04-08T03:45:44.817Z,52.58
2023-04-08T03:48:13.116Z,47.60
2023-04-08T03:50:41.450Z,49.25
2023-04-08T03:53:12.876Z,43.25
2023-04-08T03:55:41.241Z,44.38
2023-04-08T03:58:09.538Z,50.50
2023-04-08T04:00:38.259Z,45.30
2023-04-08T04:03:06.787Z,49.38
2023-04-08T04:05:35.456Z,44.63
2023-04-08T04:08:03.858Z,43.38
2023-04-08T04:10:33.804Z,37.70
2023-04-08T04:13:02.174Z,29.55
2023-04-08T04:15:30.477Z,35.00
2023-04-08T04:17:58.868Z,46.85
2023-04-08T04:20:29.152Z,53.97
2023-04-08T04:22:57.530Z,49.28
2023-04-08T04:25:26.223Z,49.35
2023-04-08T04:27:55.889Z,47.50
2023-04-08T04:30:24.561Z,50.10
2023-04-08T04:32:52.950Z,51.42
2023-04-08T04:35:21.439Z,51.65
2023-04-08T04:37:51.862Z,52.00
2023-04-08T04:40:20.471Z,52.13
2023-04-08T04:42:48.782Z,50.13
2023-04-08T04:45:18.688Z,51.75
2023-04-08T04:47:47.058Z,52.17
2023-04-08T04:50:15.432Z,54.53
2023-04-08T04:52:43.806Z,57.00
2023-04-08T04:55:12.146Z,52.50
2023-04-08T04:57:40.571Z,50.55
2023-04-08T05:00:11.800Z,45.63
2023-04-08T05:02:41.675Z,39.33
2023-04-08T05:05:10.786Z,42.92
2023-04-08T05:07:39.797Z,48.97
2023-04-08T05:10:09.136Z,53.08
2023-04-08T05:12:38.746Z,51.25
2023-04-08T05:15:08.779Z,55.70
2023-04-08T05:17:37.139Z,58.22
2023-04-08T05:20:08.734Z,61.88
2023-04-08T05:22:37.062Z,59.67
2023-04-08T05:25:06.375Z,56.70
2023-04-08T05:27:35.000Z,59.97
2023-04-08T05:30:03.319Z,52.75
2023-04-08T05:32:31.723Z,58.67
2023-04-08T05:35:00.034Z,57.58
2023-04-08T05:37:29.736Z,56.75
2023-04-08T05:39:58.039Z,56.47
2023-04-08T05:42:27.099Z,53.85
2023-04-08T05:44:55.395Z,55.25
2023-04-08T05:47:23.709Z,52.58
2023-04-08T05:49:53.557Z,55.15
2023-04-08T05:52:22.435Z,51.10
2023-04-08T05:54:52.111Z,53.22
2023-04-08T05:57:20.589Z,51.85
2023-04-08T05:59:48.840Z,54.53
2023-04-08T06:02:17.246Z,53.53
2023-04-08T06:04:45.889Z,53.58
2023-04-08T06:07:14.354Z,51.38
2023-04-08T06:09:43.827Z,52.83
2023-04-08T06:12:15.193Z,56.33
2023-04-08T06:14:43.468Z,54.83
2023-04-08T06:17:11.855Z,60.08
2023-04-08T06:19:40.439Z,56.38
2023-04-08T06:22:08.787Z,59.00
2023-04-08T06:24:37.132Z,59.60
2023-04-08T06:27:05.549Z,55.72
2023-04-08T06:29:35.526Z,55.05
2023-04-08T06:32:03.901Z,59.15
2023-04-08T06:34:32.231Z,57.15
2023-04-08T06:37:00.821Z,58.22
2023-04-08T06:39:29.071Z,54.08
2023-04-08T06:41:58.140Z,59.42
2023-04-08T06:44:50.765Z,58.95
2023-04-08T06:47:19.164Z,56.40
2023-04-08T06:49:47.622Z,58.20
2023-04-08T06:52:15.961Z,58.15
2023-04-08T06:54:44.412Z,54.95
2023-04-08T06:57:12.752Z,53.35
2023-04-08T06:59:41.133Z,54.08
2023-04-08T07:02:10.870Z,56.30
2023-04-08T07:04:39.106Z,56.40
2023-04-08T07:07:07.461Z,55.22
2023-04-08T07:09:36.991Z,59.50
2023-04-08T07:12:05.515Z,54.55
2023-04-08T07:14:35.939Z,59.92
2023-04-08T07:17:04.471Z,55.85
2023-04-08T07:19:34.193Z,56.25
2023-04-08T07:22:02.667Z,52.87
2023-04-08T07:24:31.366Z,54.83
2023-04-08T07:27:03.049Z,51.35
2023-04-08T07:29:31.720Z,52.13
2023-04-08T07:32:00.668Z,55.40
2023-04-08T07:34:29.002Z,52.70
2023-04-08T07:36:58.696Z,52.35
2023-04-08T07:39:27.001Z,51.72
2023-04-08T07:41:55.324Z,51.63
2023-04-08T07:44:23.612Z,54.42
2023-04-08T07:46:52.014Z,51.50
2023-04-08T07:49:20.386Z,51.08
2023-04-08T07:51:48.656Z,56.10
2023-04-08T07:54:18.361Z,50.92
2023-04-08T07:56:46.776Z,55.15
2023-04-08T07:59:15.401Z,53.33
2023-04-08T08:01:43.823Z,51.45
2023-04-08T08:04:12.303Z,49.97
2023-04-08T08:06:40.895Z,53.35
2023-04-08T08:09:09.118Z,56.35
2023-04-08T08:11:38.796Z,55.97
2023-04-08T08:14:08.013Z,56.70
2023-04-08T08:16:36.546Z,57.85
2023-04-08T08:19:07.237Z,57.97
2023-04-08T08:21:39.385Z,53.25
2023-04-08T08:24:07.938Z,56.80
2023-04-08T08:26:38.395Z,52.40
2023-04-08T08:29:08.954Z,50.53
2023-04-08T08:34:05.901Z,57.33
2023-04-08T08:36:34.772Z,57.42
2023-04-08T08:39:03.659Z,53.80
2023-04-08T08:41:36.577Z,54.35
2023-04-08T08:44:08.298Z,57.25
2023-04-08T08:46:36.821Z,53.83
2023-04-08T08:49:05.938Z,53.28
2023-04-08T08:51:34.356Z,52.90
2023-04-08T08:54:04.749Z,52.30
2023-04-08T08:56:35.048Z,54.25
2023-04-08T08:59:03.366Z,51.22
2023-04-08T09:01:35.849Z,51.00
2023-04-08T09:04:17.134Z,49.22
2023-04-08T09:06:47.735Z,45.95
2023-04-08T09:09:16.256Z,47.72
2023-04-08T09:11:46.313Z,43.38
2023-04-08T09:14:22.561Z,43.78
2023-04-08T09:16:53.047Z,42.88
2023-04-08T09:19:21.679Z,40.70
2023-04-08T09:22:08.368Z,39.95
2023-04-08T09:24:38.085Z,40.25
2023-04-08T09:27:06.825Z,40.37
2023-04-08T09:29:38.257Z,37.22
2023-04-08T09:32:08.959Z,36.35
2023-04-08T09:34:37.677Z,37.03
2023-04-08T09:37:05.998Z,36.47
2023-04-08T09:39:34.267Z,35.10
2023-04-08T09:42:10.597Z,37.25
2023-04-08T09:44:39.884Z,31.88
2023-04-08T09:47:16.255Z,33.58
2023-04-08T09:49:51.217Z,30.15
2023-04-08T09:52:26.252Z,29.20
2023-04-08T09:55:01.515Z,27.70
2023-04-08T09:57:41.646Z,26.65
2023-04-08T10:00:14.524Z,29.33
2023-04-08T10:02:56.686Z,27.67
2023-04-08T10:05:26.667Z,31.73
2023-04-08T10:07:57.110Z,30.08
2023-04-08T10:10:27.129Z,27.23
2023-04-08T10:12:55.813Z,26.00
2023-04-08T10:15:27.161Z,25.50
2023-04-08T10:17:58.311Z,26.95
2023-04-08T10:20:46.831Z,26.63
2023-04-08T10:23:16.862Z,24.25
2023-04-08T10:25:48.047Z,25.95
2023-04-08T10:28:27.241Z,24.20
2023-04-08T10:30:57.489Z,23.10
2023-04-08T10:33:36.561Z,22.23
2023-04-08T10:36:12.623Z,23.80
2023-04-08T10:38:42.607Z,23.50
2023-04-08T10:41:14.669Z,22.50
2023-04-08T10:43:44.106Z,23.45
2023-04-08T10:46:12.888Z,26.05
2023-04-08T10:48:42.746Z,27.63
2023-04-08T10:51:12.146Z,27.77
2023-04-08T10:53:41.211Z,28.35
2023-04-08T10:56:13.328Z,29.77
2023-04-08T10:58:50.545Z,28.73
2023-04-08T11:01:19.438Z,28.60
2023-04-08T11:03:49.798Z,28.15
2023-04-08T11:06:19.544Z,27.58
2023-04-08T11:08:48.181Z,27.20
2023-04-08T11:11:16.636Z,28.75
2023-04-08T11:13:53.260Z,29.30
2023-04-08T11:16:23.428Z,28.40
2023-04-08T11:18:55.543Z,28.10
2023-04-08T11:21:29.096Z,26.45
2023-04-08T11:23:57.701Z,27.88
2023-04-08T11:26:27.593Z,28.25
2023-04-08T11:28:57.545Z,28.23
2023-04-08T11:31:26.205Z,26.42
2023-04-08T11:33:56.764Z,25.20
2023-04-08T11:36:26.000Z,27.58
2023-04-08T11:38:55.958Z,25.65
2023-04-08T11:41:24.362Z,24.70
2023-04-08T11:43:54.376Z,23.85
2023-04-08T11:46:23.201Z,22.60
2023-04-08T11:49:10.294Z,21.42
2023-04-08T11:51:56.391Z,20.55
2023-04-08T11:54:29.003Z,21.33
2023-04-08T11:56:58.241Z,20.48
2023-04-08T11:59:28.979Z,22.65
2023-04-08T12:01:58.041Z,20.73
2023-04-08T12:04:28.179Z,20.33
2023-04-08T12:06:58.362Z,19.27
2023-04-08T12:09:27.455Z,19.38
2023-04-08T12:11:56.644Z,19.58
2023-04-08T12:14:27.697Z,19.30
2023-04-08T12:16:56.861Z,22.48
2023-04-08T12:19:25.264Z,21.45
2023-04-08T12:21:54.893Z,20.88
2023-04-08T12:24:23.138Z,19.77
2023-04-08T12:26:51.492Z,21.80
2023-04-08T12:29:19.804Z,20.35
2023-04-08T12:31:48.147Z,23.40
2023-04-08T12:34:16.810Z,21.42
2023-04-08T12:36:46.081Z,18.98
2023-04-08T12:39:15.785Z,21.85
2023-04-08T12:41:44.126Z,21.92
2023-04-08T12:44:12.719Z,19.80
2023-04-08T12:46:41.199Z,19.13
2023-04-08T12:49:09.875Z,20.02
2023-04-08T12:51:38.260Z,20.83
2023-04-08T12:54:06.699Z,18.35
2023-04-08T12:56:36.492Z,17.98
2023-04-08T12:59:04.838Z,19.10
2023-04-08T13:01:33.200Z,19.52
2023-04-08T13:04:01.634Z,18.23
2023-04-08T13:06:30.058Z,22.17
2023-04-08T13:08:58.343Z,18.75
2023-04-08T13:11:27.080Z,18.92
2023-04-08T13:13:56.804Z,20.83
2023-04-08T13:16:25.193Z,18.50
2023-04-08T13:18:53.715Z,22.20
2023-04-08T13:21:22.155Z,21.50
2023-04-08T13:23:50.578Z,21.23
2023-04-08T13:26:18.961Z,20.27
2023-04-08T13:28:56.736Z,19.95
2023-04-08T13:31:27.350Z,17.55
2023-04-08T13:33:58.190Z,19.15
2023-04-08T13:36:28.899Z,17.55
2023-04-08T13:41:28.047Z,20.05
2023-04-08T13:43:56.694Z,21.65
2023-04-08T13:46:26.378Z,18.55
2023-04-08T13:48:54.881Z,17.13
2023-04-08T13:51:23.274Z,20.33
2023-04-08T13:53:51.984Z,18.67
2023-04-08T13:56:21.028Z,19.58
2023-04-08T13:58:56.493Z,17.10
2023-04-08T14:01:27.046Z,20.42
2023-04-08T14:03:55.663Z,20.40
2023-04-08T14:06:24.028Z,17.98
2023-04-08T14:08:52.473Z,23.20
2023-04-08T14:11:21.326Z,18.10
2023-04-08T14:13:49.730Z,18.40
2023-04-08T14:16:18.137Z,18.38
2023-04-08T14:18:47.922Z,18.23
2023-04-08T14:21:18.171Z,17.17
2023-04-08T14:23:46.732Z,18.17
2023-04-08T14:26:15.057Z,17.60
2023-04-08T14:28:43.425Z,16.92
2023-04-08T14:31:12.537Z,20.10
2023-04-08T14:33:42.157Z,19.95
2023-04-08T14:36:12.088Z,18.75
2023-04-08T14:38:40.485Z,15.93
2023-04-08T14:41:08.806Z,19.67
2023-04-08T14:43:37.102Z,18.30
2023-04-08T14:46:05.540Z,17.17
2023-04-08T14:48:33.952Z,16.85
2023-04-08T14:51:02.456Z,17.52
2023-04-08T14:53:32.258Z,18.15
2023-04-08T14:56:00.870Z,19.93
2023-04-08T14:58:29.293Z,18.40
2023-04-08T15:00:57.644Z,17.63
2023-04-08T15:03:26.030Z,18.98
2023-04-08T15:05:57.643Z,17.92
2023-04-08T15:08:26.141Z,18.42
2023-04-08T15:10:55.823Z,18.95
2023-04-08T15:13:24.528Z,21.50
2023-04-08T15:15:52.870Z,17.95
2023-04-08T15:18:21.235Z,18.10
2023-04-08T15:20:49.535Z,19.55
2023-04-08T15:23:18.057Z,16.48
2023-04-08T15:25:46.450Z,18.02
2023-04-08T15:28:16.227Z,17.30
2023-04-08T15:30:45.142Z,16.17
2023-04-08T15:33:13.572Z,16.92
2023-04-08T15:35:42.089Z,19.70
2023-04-08T15:38:10.421Z,16.77
2023-04-08T15:40:38.824Z,18.88
2023-04-08T15:43:10.097Z,17.30
2023-04-08T15:45:44.423Z,17.10
2023-04-08T15:48:13.266Z,19.42
2023-04-08T15:50:42.120Z,18.90
2023-04-08T15:53:10.550Z,26.40
2023-04-08T15:55:40.034Z,20.02
2023-04-08T15:58:08.774Z,22.42
2023-04-08T16:00:37.408Z,21.60
2023-04-08T16:03:08.947Z,24.63
2023-04-08T16:05:39.721Z,23.50
2023-04-08T16:10:36.294Z,24.05
2023-04-08T16:13:04.722Z,22.70
2023-04-08T16:15:34.097Z,22.55
2023-04-08T16:18:03.449Z,22.33
2023-04-08T16:20:33.194Z,21.45
2023-04-08T16:23:01.701Z,22.45
2023-04-08T16:25:30.062Z,21.58
2023-04-08T16:27:58.420Z,23.15
2023-04-08T16:30:26.821Z,21.58
2023-04-08T16:32:55.338Z,24.23
2023-04-08T16:35:23.723Z,23.25
2023-04-08T16:37:53.371Z,21.38
2023-04-08T16:40:21.731Z,22.48
2023-04-08T16:42:50.036Z,25.02
2023-04-08T16:45:18.465Z,20.90
2023-04-08T16:47:46.901Z,22.80
2023-04-08T16:50:15.743Z,22.73
2023-04-08T16:52:49.374Z,23.27
2023-04-08T16:55:20.045Z,20.50
2023-04-08T17:00:20.509Z,23.23
2023-04-08T17:02:49.845Z,21.88
2023-04-08T17:05:18.602Z,21.35
2023-04-08T17:07:46.933Z,21.98
2023-04-08T17:10:15.436Z,21.48
2023-04-08T17:12:45.182Z,23.05
2023-04-08T17:15:13.800Z,22.50
2023-04-08T17:17:42.169Z,23.35
2023-04-08T17:20:12.154Z,22.25
2023-04-08T17:22:40.892Z,22.35
2023-04-08T17:25:10.660Z,24.35
2023-04-08T17:27:39.022Z,21.98
2023-04-08T17:30:11.566Z,22.02
2023-04-08T17:32:40.151Z,22.25
2023-04-08T17:35:09.694Z,20.58
2023-04-08T17:37:38.037Z,18.60
2023-04-08T17:40:08.567Z,19.52
2023-04-08T17:42:36.998Z,20.42
2023-04-08T17:45:07.145Z,20.27
2023-04-08T17:47:36.883Z,20.67
2023-04-08T17:50:06.568Z,21.40
2023-04-08T17:52:35.413Z,18.67
2023-04-08T17:55:03.867Z,22.77
2023-04-08T17:57:32.425Z,18.58
2023-04-08T18:00:01.610Z,20.33
2023-04-08T18:02:30.211Z,20.25
2023-04-08T18:05:00.807Z,18.23
2023-04-08T18:07:29.143Z,22.65
2023-04-08T18:09:57.431Z,17.70
2023-04-08T18:12:27.038Z,19.38
2023-04-08T18:14:55.418Z,18.05
2023-04-08T18:17:24.211Z,18.15
2023-04-08T18:19:52.602Z,19.65
2023-04-08T18:22:22.614Z,23.20
2023-04-08T18:24:51.004Z,21.48
2023-04-08T18:27:19.367Z,19.98
2023-04-08T18:29:47.761Z,21.67
2023-04-08T18:32:16.137Z,23.67
2023-04-08T18:34:44.410Z,23.58
2023-04-08T18:37:13.121Z,22.23
2023-04-08T18:39:42.896Z,20.83
2023-04-08T18:42:11.321Z,21.27
2023-04-08T18:44:39.675Z,21.30
2023-04-08T18:47:08.447Z,20.00
2023-04-08T18:49:38.436Z,19.88
2023-04-08T18:52:08.348Z,18.33
2023-04-08T18:54:36.764Z,18.15
2023-04-08T18:57:06.476Z,18.42
2023-04-08T18:59:35.252Z,17.92
2023-04-08T19:02:03.790Z,17.23
2023-04-08T19:04:33.396Z,21.20
2023-04-08T19:07:01.857Z,20.20
2023-04-08T19:09:30.144Z,17.67
2023-04-08T19:11:58.536Z,17.95
2023-04-08T19:14:28.622Z,19.77
2023-04-08T19:16:56.979Z,18.83
2023-04-08T19:19:25.284Z,18.92
2023-04-08T19:21:53.577Z,19.33
2023-04-08T19:24:21.901Z,19.55
2023-04-08T19:26:51.286Z,17.50
2023-04-08T19:29:22.951Z,17.73
2023-04-08T19:31:52.839Z,19.35
2023-04-08T19:34:21.160Z,20.90
2023-04-08T19:36:49.472Z,18.85
2023-04-08T19:39:18.455Z,18.67
2023-04-08T19:41:47.135Z,20.05
2023-04-08T19:44:15.625Z,18.55
2023-04-08T19:46:43.960Z,18.95
2023-04-08T19:49:13.700Z,22.52
2023-04-08T19:51:42.100Z,20.98
2023-04-08T19:54:10.355Z,20.65
2023-04-08T19:56:38.639Z,19.95
2023-04-08T19:59:06.968Z,19.92
2023-04-08T20:01:35.911Z,19.95
2023-04-08T20:04:04.626Z,21.10
2023-04-08T20:06:34.767Z,20.65
2023-04-08T20:09:05.669Z,22.42
2023-04-08T20:11:34.552Z,20.50
2023-04-08T20:14:04.318Z,20.58
2023-04-08T20:16:32.755Z,21.33
2023-04-08T20:19:01.172Z,23.10
2023-04-08T20:21:29.463Z,22.65
2023-04-08T20:23:59.092Z,23.15
2023-04-08T20:26:27.492Z,21.23
2023-04-08T20:28:58.032Z,23.38
2023-04-08T20:31:27.913Z,23.92
2023-04-08T20:33:56.239Z,24.65
2023-04-08T20:36:24.955Z,24.08
2023-04-08T20:38:53.457Z,22.90
2023-04-08T20:41:25.903Z,26.05
2023-04-08T20:43:55.104Z,25.10
2023-04-08T20:46:24.515Z,26.10
2023-04-08T20:48:53.319Z,25.50
2023-04-08T20:51:22.081Z,25.45
2023-04-08T20:53:50.803Z,25.15
2023-04-08T20:56:19.113Z,27.38
2023-04-08T20:58:48.861Z,28.85
2023-04-08T21:01:17.162Z,28.67
2023-04-08T21:03:45.555Z,27.25
2023-04-08T21:06:17.801Z,28.60
2023-04-08T21:08:46.800Z,27.25
2023-04-08T21:11:15.500Z,28.95
2023-04-08T21:13:45.518Z,27.50
2023-04-08T21:16:17.260Z,30.85
2023-04-08T21:18:45.613Z,32.75
2023-04-08T21:21:14.017Z,31.77
2023-04-08T21:23:42.333Z,30.00
2023-04-08T21:26:13.794Z,30.67
2023-04-08T21:28:42.189Z,32.80
2023-04-08T21:31:11.103Z,33.53
2023-04-08T21:33:40.937Z,31.08
2023-04-08T21:36:09.374Z,31.77
2023-04-08T21:38:37.730Z,32.63
2023-04-08T21:41:06.249Z,32.20
2023-04-08T21:43:34.625Z,35.08
2023-04-08T21:46:03.146Z,31.13
2023-04-08T21:48:31.665Z,33.05
2023-04-08T21:51:01.470Z,33.40
2023-04-08T21:53:29.875Z,36.25
2023-04-08T21:55:58.215Z,37.42
2023-04-08T21:58:28.172Z,35.83
2023-04-08T22:00:56.620Z,32.78
2023-04-08T22:03:25.041Z,35.28
2023-04-08T22:05:53.449Z,35.38
2023-04-08T22:08:23.142Z,34.95
2023-04-08T22:10:51.817Z,36.92
2023-04-08T22:13:20.656Z,35.40
2023-04-08T22:15:49.012Z,34.97
2023-04-08T22:18:17.334Z,35.15
2023-04-08T22:20:45.646Z,37.50
2023-04-08T22:23:13.949Z,38.97
2023-04-08T22:25:43.659Z,36.17
2023-04-08T22:28:13.253Z,36.10
2023-04-08T22:30:41.686Z,35.28
2023-04-08T22:33:09.995Z,36.92
2023-04-08T22:35:38.811Z,36.90
2023-04-08T22:38:07.104Z,35.92
2023-04-08T22:40:37.455Z,35.78
2023-04-08T22:43:07.144Z,37.95
2023-04-08T22:45:37.551Z,38.95
2023-04-08T22:48:06.569Z,36.08
2023-04-08T22:50:34.932Z,35.90
2023-04-08T22:53:03.762Z,36.05
2023-04-08T22:55:32.231Z,35.38
2023-04-08T22:58:00.608Z,41.53
2023-04-08T23:00:30.692Z,35.50
2023-04-08T23:03:00.647Z,36.20
2023-04-08T23:05:29.090Z,37.20
2023-04-08T23:07:57.372Z,35.35
2023-04-08T23:10:25.729Z,37.05
2023-04-08T23:12:54.092Z,35.15
2023-04-08T23:15:22.394Z,35.78
2023-04-08T23:17:52.110Z,35.47
2023-04-08T23:20:20.597Z,38.13
2023-04-08T23:22:48.986Z,35.40
2023-04-08T23:25:17.314Z,37.33
2023-04-08T23:27:46.063Z,35.75
2023-04-08T23:30:14.429Z,37.35
2023-04-08T23:32:42.856Z,36.08
2023-04-08T23:35:12.685Z,36.60
2023-04-08T23:37:40.909Z,34.03
2023-04-08T23:40:11.016Z,34.83
2023-04-08T23:42:39.356Z,36.95
2023-04-08T23:45:08.753Z,37.03
2023-04-08T23:47:37.133Z,37.35
2023-04-08T23:50:06.771Z,36.20
2023-04-08T23:52:37.380Z,41.45
2023-04-08T23:55:06.689Z,37.00
2023-04-08T23:57:35.046Z,32.90
